createdAt,value
2019-02-19T13:14:15.022Z,10.90
2019-02-19T13:16:47.606Z,11.00
2019-02-19T13:22:18.525Z,11.00
2019-02-19T13:24:52.648Z,11.00
2019-02-19T13:27:32.677Z,11.00
2019-02-19T13:30:12.366Z,11.00
2019-02-19T13:32:54.390Z,11.00
2019-02-19T13:35:32.738Z,11.00
2019-02-19T13:38:13.993Z,11.00
2019-02-19T13:41:19.452Z,11.00
2019-02-19T13:43:38.075Z,10.90
2019-02-19T13:46:23.760Z,10.90
2019-02-19T13:49:12.261Z,10.90
2019-02-19T13:51:38.551Z,10.80
2019-02-19T13:54:31.920Z,10.80
2019-02-19T13:57:03.267Z,10.80
2019-02-19T13:59:39.963Z,10.80
2019-02-19T14:02:14.096Z,10.70
2019-02-19T14:04:51.631Z,10.80
2019-02-19T14:07:27.977Z,10.80
2019-02-19T14:10:23.341Z,10.80
2019-02-19T14:12:54.467Z,10.70
2019-02-19T14:15:55.427Z,10.70
2019-02-19T14:18:51.406Z,10.70
2019-02-19T14:24:57.462Z,10.70
2019-02-19T14:28:03.873Z,10.70
2019-02-19T14:31:03.056Z,10.60
2019-02-19T14:33:55.212Z,10.60
2019-02-19T14:37:06.209Z,10.60
2019-02-19T14:39:57.806Z,10.60
2019-02-19T14:43:06.234Z,10.60
2019-02-19T14:45:58.649Z,10.60
2019-02-19T14:48:51.687Z,10.60
2019-02-19T14:54:45.537Z,10.50
2019-02-19T14:57:36.959Z,10.60
2019-02-19T15:00:30.693Z,10.60
2019-02-19T15:03:20.611Z,10.60
2019-02-19T15:06:14.855Z,10.50
2019-02-19T15:09:07.637Z,10.50
2019-02-19T15:12:12.911Z,10.50
2019-02-19T15:15:02.770Z,10.60
2019-02-19T15:17:40.989Z,10.50
2019-02-19T15:20:39.310Z,10.60
2019-02-19T15:23:35.860Z,10.50
2019-02-19T15:26:42.330Z,10.50
2019-02-19T15:29:47.754Z,10.50
2019-02-19T15:32:44.812Z,10.50
2019-02-19T15:35:37.418Z,10.50
2019-02-19T15:38:29.806Z,10.50
2019-02-19T15:41:18.578Z,10.50
2019-02-19T15:44:11.037Z,10.50
2019-02-19T15:46:51.295Z,10.50
2019-02-19T15:49:48.108Z,10.40
2019-02-19T15:52:30.819Z,10.40
2019-02-19T15:55:30.381Z,10.40
2019-02-19T15:58:18.735Z,10.40
2019-02-19T16:06:38.315Z,10.40
2019-02-19T16:24:07.489Z,10.30
2019-02-19T16:26:48.396Z,10.20
2019-02-19T16:29:37.914Z,10.20
2019-02-19T16:32:36.778Z,10.20
2019-02-19T16:35:25.258Z,10.20
2019-02-19T16:38:03.450Z,10.20
2019-02-19T16:45:40.974Z,10.10
2019-02-19T17:21:56.716Z,9.60
2019-02-19T17:24:57.530Z,9.50
2019-02-19T17:28:26.567Z,9.50
2019-02-19T17:31:22.867Z,9.40
2019-02-19T17:34:59.654Z,9.40
2019-02-19T17:37:52.052Z,9.30
2019-02-19T17:40:36.967Z,9.30
2019-02-19T17:43:23.679Z,9.30
2019-02-19T17:49:49.476Z,9.20
2019-02-19T17:52:46.803Z,9.20
2019-02-19T17:55:33.572Z,9.10
2019-02-19T17:58:12.337Z,9.10
2019-02-19T18:00:49.587Z,9.10
2019-02-19T18:03:37.914Z,9.10
2019-02-19T18:06:36.611Z,9.00
2019-02-19T18:09:26.383Z,9.00
2019-02-19T18:12:24.159Z,8.90
2019-02-19T18:15:13.613Z,8.90
2019-02-19T18:17:56.113Z,8.90
2019-02-19T18:20:27.123Z,8.80
2019-02-19T18:23:27.766Z,8.80
2019-02-19T18:26:01.883Z,8.80
2019-02-19T18:28:35.926Z,8.70
2019-02-19T18:33:12.662Z,8.70
2019-02-19T18:35:53.694Z,8.70
2019-02-19T18:38:31.835Z,8.60
2019-02-19T18:41:05.124Z,8.60
2019-02-19T18:43:51.105Z,8.50
2019-02-19T18:46:25.791Z,8.50
2019-02-19T18:49:11.895Z,8.50
2019-02-19T18:51:49.521Z,8.40
2019-02-19T18:54:19.604Z,8.40
2019-02-19T18:56:57.093Z,8.40
2019-02-19T18:59:27.619Z,8.40
2019-02-19T19:02:04.219Z,8.30
2019-02-19T19:04:35.471Z,8.30
2019-02-19T19:07:09.440Z,8.30
2019-02-19T19:09:43.506Z,8.30
2019-02-19T19:12:14.609Z,8.20
2019-02-19T19:14:45.607Z,8.20
2019-02-19T19:17:39.126Z,8.20
2019-02-19T19:20:11.795Z,8.10
2019-02-19T19:22:43.091Z,8.10
2019-02-19T19:25:14.326Z,8.10
2019-02-19T19:27:44.878Z,8.00
2019-02-19T19:30:26.571Z,8.10
2019-02-19T19:33:37.488Z,8.00
2019-02-19T19:36:21.736Z,8.00
2019-02-19T19:38:52.526Z,8.00
2019-02-19T19:42:12.036Z,8.00
2019-02-19T19:44:42.800Z,8.00
2019-02-19T19:47:13.458Z,7.90
2019-02-19T19:54:04.771Z,7.90
2019-02-19T20:12:28.093Z,7.70
2019-02-19T20:14:58.827Z,7.70
2019-02-19T20:17:29.462Z,7.70
2019-02-19T20:20:00.010Z,7.60
2019-02-19T20:22:30.617Z,7.60
2019-02-19T20:25:01.158Z,7.60
2019-02-19T20:27:32.623Z,7.60
2019-02-19T20:30:03.478Z,7.50
2019-02-19T20:32:34.122Z,7.50
2019-02-19T20:35:04.737Z,7.50
2019-02-19T20:37:35.241Z,7.50
2019-02-19T20:40:06.065Z,7.50
2019-02-19T20:42:36.624Z,7.50
2019-02-19T20:45:07.426Z,7.50
2019-02-19T20:47:38.071Z,7.40
2019-02-19T20:50:09.293Z,7.40
2019-02-19T20:52:39.825Z,7.40
2019-02-19T20:55:10.415Z,7.30
2019-02-19T20:57:40.867Z,7.30
2019-02-19T21:00:15.686Z,7.30
2019-02-19T21:02:46.171Z,7.20
2019-02-19T21:05:17.028Z,7.20
2019-02-19T21:07:47.529Z,7.20
2019-02-19T21:10:18.208Z,7.20
2019-02-19T21:12:48.658Z,7.20
2019-02-19T21:15:19.132Z,7.20
2019-02-19T21:17:49.659Z,7.20
2019-02-19T21:20:22.036Z,7.10
2019-02-19T21:22:52.394Z,7.10
2019-02-19T21:25:30.771Z,7.10
2019-02-19T21:27:55.157Z,7.10
2019-02-19T21:30:25.740Z,7.10
2019-02-19T21:32:56.242Z,7.10
2019-02-19T21:35:26.802Z,7.00
2019-02-19T21:37:57.325Z,7.00
2019-02-19T21:40:27.811Z,7.00
2019-02-19T21:42:58.338Z,7.00
2019-02-19T21:45:28.779Z,7.00
2019-02-19T21:47:59.277Z,7.00
2019-02-19T21:50:29.810Z,6.90
2019-02-19T21:53:00.280Z,6.90
2019-02-19T21:55:30.736Z,6.90
2019-02-19T21:58:01.217Z,6.90
2019-02-19T22:00:31.683Z,6.90
2019-02-19T22:03:02.210Z,6.80
2019-02-19T22:05:32.723Z,6.80
2019-02-19T22:08:03.226Z,6.80
2019-02-19T22:10:33.698Z,6.80
2019-02-19T22:13:04.218Z,6.80
2019-02-19T22:15:34.674Z,6.80
2019-02-19T22:18:05.169Z,6.80
2019-02-19T22:20:44.144Z,6.70
2019-02-19T22:23:14.591Z,6.70
2019-02-19T22:25:45.063Z,6.70
2019-02-19T22:28:15.542Z,6.70
2019-02-19T22:30:46.088Z,6.70
2019-02-19T22:33:16.541Z,6.70
2019-02-19T22:35:48.441Z,6.70
2019-02-19T22:38:18.879Z,6.70
2019-02-19T22:40:54.943Z,6.70
2019-02-19T22:43:21.618Z,6.70
2019-02-19T22:45:52.177Z,6.70
2019-02-19T22:48:22.730Z,6.70
2019-02-19T22:50:53.178Z,6.70
2019-02-19T22:53:41.329Z,6.70
2019-02-19T22:56:17.395Z,6.70
2019-02-19T22:58:47.874Z,6.70
2019-02-19T23:01:31.678Z,6.60
2019-02-19T23:04:03.063Z,6.60
2019-02-19T23:06:33.539Z,6.60
2019-02-19T23:09:05.151Z,6.60
2019-02-19T23:11:35.612Z,6.60
2019-02-19T23:14:06.163Z,6.60
2019-02-19T23:16:36.649Z,6.60
2019-02-19T23:19:07.114Z,6.50
2019-02-19T23:21:37.583Z,6.50
2019-02-19T23:24:08.063Z,6.50
2019-02-19T23:26:38.518Z,6.50
2019-02-19T23:29:09.010Z,6.50
2019-02-19T23:31:39.499Z,6.50
2019-02-19T23:34:09.986Z,6.50
2019-02-19T23:37:08.493Z,6.50
2019-02-19T23:39:43.592Z,6.40
2019-02-19T23:42:11.170Z,6.40
2019-02-19T23:44:41.616Z,6.40
2019-02-19T23:47:12.115Z,6.40
2019-02-19T23:49:42.599Z,6.40
2019-02-19T23:52:13.050Z,6.40
2019-02-19T23:54:43.530Z,6.40
2019-02-19T23:57:14.032Z,6.40
2019-02-19T23:59:44.499Z,6.40
